createdAt,value
2022-11-17T00:02:22.274Z,9.30
2022-11-17T00:04:49.218Z,9.30
2022-11-17T00:07:16.203Z,9.30
2022-11-17T00:09:43.279Z,9.20
2022-11-17T00:12:32.866Z,9.20
2022-11-17T00:15:00.265Z,9.20
2022-11-17T00:17:27.642Z,9.20
2022-11-17T00:20:13.158Z,9.20
2022-11-17T00:22:40.077Z,9.20
2022-11-17T00:25:07.245Z,9.10
2022-11-17T00:27:34.242Z,9.10
2022-11-17T00:30:01.170Z,9.10
2022-11-17T00:32:46.730Z,9.00
2022-11-17T00:35:13.693Z,8.90
2022-11-17T00:37:59.623Z,8.90
2022-11-17T00:40:26.836Z,8.90
2022-11-17T00:42:53.867Z,8.80
2022-11-17T00:45:20.756Z,8.80
2022-11-17T00:47:48.282Z,8.70
2022-11-17T00:50:15.406Z,8.80
2022-11-17T00:52:42.334Z,8.70
2022-11-17T00:55:09.419Z,8.70
2022-11-17T00:57:36.387Z,8.60
2022-11-17T01:00:04.323Z,8.60
2022-11-17T01:02:31.227Z,8.60
2022-11-17T01:04:58.176Z,8.50
2022-11-17T01:07:26.007Z,8.50
2022-11-17T01:09:53.000Z,8.50
2022-11-17T01:12:19.899Z,8.50
2022-11-17T01:14:47.193Z,8.50
2022-11-17T01:17:14.121Z,8.40
2022-11-17T01:19:41.199Z,8.40
2022-11-17T01:22:08.091Z,8.40
2022-11-17T01:24:35.012Z,8.40
2022-11-17T01:27:01.909Z,8.40
2022-11-17T01:29:28.842Z,8.40
2022-11-17T01:31:55.761Z,8.50
2022-11-17T01:34:22.693Z,8.50
2022-11-17T01:37:08.112Z,8.50
2022-11-17T01:39:35.060Z,8.50
2022-11-17T01:42:13.167Z,8.50
2022-11-17T01:45:05.154Z,8.50
2022-11-17T01:47:55.203Z,8.60
2022-11-17T01:50:38.298Z,8.60
2022-11-17T01:53:11.044Z,8.60
2022-11-17T01:55:50.666Z,8.60
2022-11-17T01:58:43.202Z,8.60
2022-11-17T02:01:10.274Z,8.60
2022-11-17T02:03:39.848Z,8.60
2022-11-17T02:06:12.239Z,8.70
2022-11-17T02:08:41.133Z,8.70
2022-11-17T02:11:13.327Z,8.70
2022-11-17T02:13:41.069Z,8.70
2022-11-17T02:16:15.735Z,8.70
2022-11-17T02:18:45.571Z,8.70
2022-11-17T02:21:43.246Z,8.70
2022-11-17T02:24:25.778Z,8.70
2022-11-17T02:27:24.475Z,8.60
2022-11-17T02:30:07.545Z,8.60
2022-11-17T02:32:53.207Z,8.60
2022-11-17T02:35:28.257Z,8.60
2022-11-17T02:38:14.337Z,8.60
2022-11-17T02:40:49.374Z,8.60
2022-11-17T02:43:43.001Z,8.60
2022-11-17T02:46:16.435Z,8.60
2022-11-17T02:48:52.086Z,8.60
2022-11-17T02:51:22.361Z,8.60
2022-11-17T02:53:52.300Z,8.60
2022-11-17T02:56:19.596Z,8.60
2022-11-17T02:58:51.145Z,8.60
2022-11-17T03:01:24.455Z,8.60
2022-11-17T03:04:01.933Z,8.60
2022-11-17T03:07:01.458Z,8.60
2022-11-17T03:09:34.360Z,8.60
2022-11-17T03:12:23.411Z,8.70
2022-11-17T03:14:59.254Z,8.70
2022-11-17T03:17:32.226Z,8.70
2022-11-17T03:20:08.550Z,8.70
2022-11-17T03:22:53.815Z,8.70
2022-11-17T03:25:23.737Z,8.70
2022-11-17T03:27:56.503Z,8.70
2022-11-17T03:30:25.526Z,8.80
2022-11-17T03:32:56.927Z,8.80
2022-11-17T03:35:28.759Z,8.80
2022-11-17T03:38:02.015Z,8.80
2022-11-17T03:40:32.764Z,8.90
2022-11-17T03:43:04.131Z,8.90
2022-11-17T03:45:37.759Z,8.90
2022-11-17T03:48:14.338Z,8.90
2022-11-17T03:50:46.782Z,8.90
2022-11-17T03:53:14.390Z,8.90
2022-11-17T03:55:51.636Z,8.90
2022-11-17T03:58:22.120Z,8.90
2022-11-17T04:00:53.397Z,8.90
2022-11-17T04:03:23.415Z,8.90
2022-11-17T04:05:50.357Z,9.00
2022-11-17T04:08:17.349Z,9.00
2022-11-17T04:11:02.947Z,9.00
2022-11-17T04:13:48.303Z,9.10
2022-11-17T04:16:15.281Z,9.10
2022-11-17T04:18:42.270Z,9.10
2022-11-17T04:21:09.230Z,9.20
2022-11-17T04:23:36.612Z,9.20
2022-11-17T04:26:22.378Z,9.20
2022-11-17T04:28:50.433Z,9.20
2022-11-17T04:31:32.002Z,9.30
2022-11-17T04:34:04.546Z,9.30
2022-11-17T04:36:43.590Z,9.20
2022-11-17T04:39:13.021Z,9.20
2022-11-17T04:42:02.165Z,9.20
2022-11-17T04:44:31.686Z,9.20
2022-11-17T04:46:59.249Z,9.20
2022-11-17T04:49:26.557Z,9.20
2022-11-17T04:51:54.318Z,9.20
2022-11-17T04:54:24.773Z,9.20
2022-11-17T04:56:53.188Z,9.20
2022-11-17T04:59:20.442Z,9.20
2022-11-17T05:01:47.662Z,9.20
2022-11-17T05:04:39.446Z,9.20
2022-11-17T05:07:08.462Z,9.20
2022-11-17T05:09:35.490Z,9.20
2022-11-17T05:12:21.010Z,9.20
2022-11-17T05:14:49.189Z,9.10
2022-11-17T05:17:16.869Z,9.10
2022-11-17T05:19:46.116Z,9.10
2022-11-17T05:22:34.759Z,9.00
2022-11-17T05:25:02.116Z,9.00
2022-11-17T05:27:29.293Z,8.90
2022-11-17T05:29:56.239Z,8.80
2022-11-17T05:32:29.788Z,8.70
2022-11-17T05:34:56.881Z,8.50
2022-11-17T05:37:23.871Z,8.40
2022-11-17T05:39:50.805Z,8.40
2022-11-17T05:42:17.744Z,8.30
2022-11-17T05:44:44.783Z,8.30
2022-11-17T05:47:11.718Z,8.30
2022-11-17T05:49:38.680Z,8.30
2022-11-17T05:52:05.726Z,8.40
2022-11-17T05:54:32.704Z,8.40
2022-11-17T05:57:04.961Z,8.40
2022-11-17T05:59:50.413Z,8.40
2022-11-17T06:02:32.313Z,8.50
2022-11-17T06:04:59.326Z,8.50
2022-11-17T06:07:26.731Z,8.60
2022-11-17T06:09:54.536Z,8.60
2022-11-17T06:12:21.467Z,8.60
2022-11-17T06:14:48.406Z,8.70
2022-11-17T06:17:22.989Z,8.80
2022-11-17T06:20:07.110Z,8.80
2022-11-17T06:22:34.621Z,8.80
2022-11-17T06:25:04.069Z,8.80
2022-11-17T06:27:32.216Z,8.90
2022-11-17T06:30:01.728Z,8.90
2022-11-17T06:32:28.786Z,8.90
2022-11-17T06:34:56.615Z,9.00
2022-11-17T06:37:24.780Z,9.00
2022-11-17T06:39:52.397Z,9.10
2022-11-17T06:42:19.424Z,9.10
2022-11-17T06:44:46.369Z,9.20
2022-11-17T06:47:13.235Z,9.30
2022-11-17T06:49:40.217Z,9.40
2022-11-17T06:52:07.131Z,9.50
2022-11-17T06:54:34.087Z,9.60
2022-11-17T06:57:02.889Z,9.70
2022-11-17T06:59:30.043Z,9.60
2022-11-17T07:01:57.067Z,9.70
2022-11-17T07:04:24.298Z,9.80
2022-11-17T07:06:51.415Z,9.90
2022-11-17T07:09:18.692Z,10.00
2022-11-17T07:11:45.784Z,10.10
2022-11-17T07:14:12.888Z,10.20
2022-11-17T07:16:42.874Z,10.30
2022-11-17T07:19:10.789Z,10.50
2022-11-17T07:21:37.865Z,10.70
2022-11-17T07:24:05.142Z,11.10
2022-11-17T07:26:32.189Z,11.20
2022-11-17T07:28:59.294Z,11.30
2022-11-17T07:31:26.312Z,11.30
2022-11-17T07:33:56.447Z,11.20
2022-11-17T07:36:23.460Z,11.30
2022-11-17T07:38:50.505Z,11.30
2022-11-17T07:41:17.538Z,11.30
2022-11-17T07:43:44.519Z,11.40
2022-11-17T07:46:13.148Z,11.40
2022-11-17T07:48:41.392Z,11.40
2022-11-17T07:51:08.833Z,11.50
2022-11-17T07:53:35.898Z,11.50
2022-11-17T07:56:08.525Z,11.50
2022-11-17T07:58:36.987Z,11.40
2022-11-17T08:01:14.739Z,11.20
2022-11-17T08:03:45.309Z,11.00
2022-11-17T08:06:12.745Z,10.90
2022-11-17T08:08:40.257Z,10.90
2022-11-17T08:11:10.105Z,10.90
2022-11-17T08:13:38.119Z,11.00
2022-11-17T08:16:05.498Z,11.10
2022-11-17T08:18:33.474Z,11.20
2022-11-17T08:21:01.877Z,11.30
2022-11-17T08:23:28.862Z,11.40
2022-11-17T08:25:56.640Z,11.50
2022-11-17T08:28:23.879Z,11.60
2022-11-17T08:30:50.844Z,11.70
2022-11-17T08:33:17.895Z,11.90
2022-11-17T08:35:44.853Z,12.00
2022-11-17T08:38:12.327Z,12.20
2022-11-17T08:40:39.363Z,12.30
2022-11-17T08:43:06.376Z,12.50
2022-11-17T08:45:33.459Z,12.60
2022-11-17T08:48:00.484Z,12.80
2022-11-17T08:50:27.727Z,12.80
2022-11-17T08:52:54.692Z,12.80
2022-11-17T08:55:21.961Z,13.40
2022-11-17T08:57:50.056Z,14.40
2022-11-17T09:00:19.855Z,15.40
2022-11-17T09:02:47.102Z,16.10
2022-11-17T09:05:14.128Z,16.60
2022-11-17T09:07:41.181Z,17.40
2022-11-17T09:10:11.026Z,18.40
2022-11-17T09:12:38.187Z,19.40
2022-11-17T09:15:05.867Z,20.30
2022-11-17T09:17:33.096Z,21.20
2022-11-17T09:20:00.295Z,22.10
2022-11-17T09:22:27.319Z,23.00
2022-11-17T09:24:54.283Z,23.80
2022-11-17T09:27:21.175Z,24.50
2022-11-17T09:29:48.140Z,25.10
2022-11-17T09:32:16.833Z,26.00
2022-11-17T09:34:43.978Z,26.70
2022-11-17T09:37:10.931Z,27.40
2022-11-17T09:39:37.870Z,27.90
2022-11-17T09:42:05.260Z,28.30
2022-11-17T09:44:40.723Z,28.70
2022-11-17T09:47:16.719Z,29.10
2022-11-17T09:50:05.829Z,29.40
2022-11-17T09:52:41.364Z,29.40
2022-11-17T09:55:08.276Z,29.30
2022-11-17T09:57:40.993Z,29.00
2022-11-17T10:00:21.050Z,28.60
2022-11-17T10:02:48.843Z,27.40
2022-11-17T10:05:25.056Z,24.90
2022-11-17T10:07:56.279Z,22.60
2022-11-17T10:10:35.141Z,20.60
2022-11-17T10:13:04.838Z,19.30
2022-11-17T10:15:42.532Z,18.40
2022-11-17T10:18:15.309Z,17.80
2022-11-17T10:20:44.563Z,17.50
2022-11-17T10:23:17.955Z,17.20
2022-11-17T10:25:47.924Z,17.00
2022-11-17T10:28:29.585Z,16.80
2022-11-17T10:31:02.594Z,17.00
2022-11-17T10:33:36.212Z,17.10
2022-11-17T10:36:15.024Z,17.40
2022-11-17T10:38:47.801Z,17.10
2022-11-17T10:41:42.845Z,16.90
2022-11-17T10:44:12.511Z,16.70
2022-11-17T10:47:02.644Z,16.60
2022-11-17T10:49:34.310Z,16.70
2022-11-17T10:52:04.826Z,16.40
2022-11-17T10:54:31.931Z,16.40
2022-11-17T10:57:02.083Z,16.30
2022-11-17T10:59:42.228Z,16.30
2022-11-17T11:02:29.438Z,16.20
2022-11-17T11:05:12.511Z,16.30
2022-11-17T11:07:40.189Z,16.30
2022-11-17T11:10:18.742Z,16.40
2022-11-17T11:12:56.831Z,16.90
2022-11-17T11:15:25.310Z,18.70
2022-11-17T11:17:52.628Z,19.60
2022-11-17T11:20:24.358Z,19.60
2022-11-17T11:22:59.426Z,19.50
2022-11-17T11:25:44.232Z,19.20
2022-11-17T11:28:31.486Z,19.10
2022-11-17T11:31:15.783Z,19.00
2022-11-17T11:33:50.128Z,19.00
2022-11-17T11:36:26.193Z,19.00
2022-11-17T11:39:02.023Z,18.90
2022-11-17T11:41:28.862Z,18.90
2022-11-17T11:44:01.934Z,18.80
2022-11-17T11:46:35.905Z,18.80
2022-11-17T11:49:22.982Z,18.80
2022-11-17T11:51:50.427Z,18.80
2022-11-17T11:54:26.164Z,18.70
2022-11-17T11:56:53.646Z,18.80
2022-11-17T11:59:24.663Z,18.90
2022-11-17T12:02:18.144Z,19.00
2022-11-17T12:04:45.037Z,19.10
2022-11-17T12:07:24.021Z,19.40
2022-11-17T12:09:53.847Z,19.40
2022-11-17T12:12:23.125Z,19.40
2022-11-17T12:15:19.518Z,19.30
2022-11-17T12:18:06.628Z,19.20
2022-11-17T12:20:33.428Z,19.10
2022-11-17T12:23:06.256Z,19.50
2022-11-17T12:25:34.519Z,19.80
2022-11-17T12:28:18.692Z,19.70
2022-11-17T12:30:45.473Z,19.50
2022-11-17T12:33:12.272Z,19.00
2022-11-17T12:35:39.866Z,18.60
2022-11-17T12:38:16.473Z,18.10
2022-11-17T12:40:56.669Z,17.50
2022-11-17T12:43:25.882Z,16.90
2022-11-17T12:45:52.892Z,16.50
2022-11-17T12:48:35.118Z,16.20
2022-11-17T12:51:11.662Z,16.00
2022-11-17T12:53:57.725Z,15.90
2022-11-17T12:56:43.634Z,15.80
2022-11-17T12:59:34.603Z,15.80
2022-11-17T13:02:39.611Z,15.80
2022-11-17T13:05:15.803Z,15.60
2022-11-17T13:07:42.736Z,15.60
2022-11-17T13:10:30.551Z,15.50
2022-11-17T13:13:10.748Z,15.50
2022-11-17T13:15:37.794Z,15.70
2022-11-17T13:18:25.939Z,15.80
2022-11-17T13:20:53.018Z,16.00
2022-11-17T13:23:26.533Z,16.20
2022-11-17T13:26:21.220Z,16.40
2022-11-17T13:29:01.674Z,16.50
2022-11-17T13:31:28.903Z,16.60
2022-11-17T13:34:05.816Z,16.70
2022-11-17T13:36:33.948Z,16.80
2022-11-17T13:39:01.920Z,17.10
2022-11-17T13:41:37.207Z,17.70
2022-11-17T13:44:06.717Z,18.80
2022-11-17T13:46:35.825Z,20.00
2022-11-17T13:49:48.630Z,20.30
2022-11-17T13:52:53.477Z,20.60
2022-11-17T13:55:21.536Z,20.30
2022-11-17T13:58:07.440Z,20.10
2022-11-17T14:00:34.896Z,19.90
2022-11-17T14:03:06.281Z,19.50
2022-11-17T14:05:34.100Z,18.90
2022-11-17T14:08:23.605Z,18.30
2022-11-17T14:10:50.727Z,17.70
2022-11-17T14:13:25.055Z,17.60
2022-11-17T14:15:57.919Z,17.80
2022-11-17T14:18:33.096Z,17.90
2022-11-17T14:21:10.796Z,18.30
2022-11-17T14:23:38.027Z,18.10
2022-11-17T14:26:06.115Z,17.50
2022-11-17T14:28:33.121Z,17.00
2022-11-17T14:31:00.037Z,16.70
2022-11-17T14:33:27.017Z,16.40
2022-11-17T14:35:59.707Z,16.20
2022-11-17T14:38:26.645Z,15.90
2022-11-17T14:40:54.208Z,15.70
2022-11-17T14:43:22.473Z,15.40
2022-11-17T14:45:50.459Z,15.20
2022-11-17T14:48:19.417Z,15.00
2022-11-17T14:50:47.403Z,14.90
2022-11-17T14:53:14.792Z,14.70
2022-11-17T14:55:41.746Z,14.60
2022-11-17T14:58:10.039Z,14.40
2022-11-17T15:00:37.769Z,14.20
2022-11-17T15:03:05.112Z,14.00
2022-11-17T15:05:32.152Z,13.90
2022-11-17T15:07:59.043Z,13.70
2022-11-17T15:10:25.996Z,13.60
2022-11-17T15:12:52.916Z,13.60
2022-11-17T15:15:19.806Z,13.50
2022-11-17T15:17:46.628Z,13.50
2022-11-17T15:20:13.638Z,13.40
2022-11-17T15:22:40.450Z,13.40
2022-11-17T15:25:08.060Z,13.30
2022-11-17T15:27:34.863Z,13.30
2022-11-17T15:30:01.939Z,13.30
2022-11-17T15:32:28.839Z,13.20
2022-11-17T15:34:55.721Z,13.20
2022-11-17T15:37:22.611Z,13.20
2022-11-17T15:39:49.429Z,13.20
2022-11-17T15:42:16.237Z,13.30
2022-11-17T15:44:43.065Z,13.20
2022-11-17T15:47:09.935Z,13.30
2022-11-17T15:49:36.740Z,13.30
2022-11-17T15:52:03.687Z,13.30
2022-11-17T15:54:30.667Z,13.30
2022-11-17T15:56:57.492Z,13.30
2022-11-17T15:59:24.348Z,13.20
2022-11-17T16:01:51.390Z,13.20
2022-11-17T16:04:18.420Z,13.10
2022-11-17T16:06:46.483Z,13.10
2022-11-17T16:09:15.309Z,13.10
2022-11-17T16:11:42.865Z,13.00
2022-11-17T16:14:10.021Z,13.00
2022-11-17T16:16:38.953Z,13.00
2022-11-17T16:19:06.369Z,13.00
2022-11-17T16:21:33.486Z,13.00
2022-11-17T16:24:02.196Z,12.90
2022-11-17T16:26:30.100Z,12.90
2022-11-17T16:29:01.757Z,12.90
2022-11-17T16:31:31.169Z,12.90
2022-11-17T16:34:12.873Z,12.90
2022-11-17T16:36:42.327Z,12.90
2022-11-17T16:39:14.297Z,12.90
2022-11-17T16:41:43.391Z,12.80
2022-11-17T16:44:12.389Z,12.90
2022-11-17T16:46:42.353Z,12.80
2022-11-17T16:49:11.839Z,12.80
2022-11-17T16:51:38.894Z,12.80
2022-11-17T16:54:07.808Z,12.80
2022-11-17T16:56:34.865Z,12.80
2022-11-17T16:59:02.058Z,12.70
2022-11-17T17:01:31.849Z,12.70
2022-11-17T17:04:04.813Z,12.70
2022-11-17T17:06:32.672Z,12.70
2022-11-17T17:09:04.963Z,12.70
2022-11-17T17:11:33.429Z,12.70
2022-11-17T17:14:03.182Z,12.70
2022-11-17T17:16:31.839Z,12.70
2022-11-17T17:19:01.862Z,12.70
2022-11-17T17:21:30.063Z,12.70
2022-11-17T17:23:57.720Z,12.80
2022-11-17T17:26:26.972Z,12.80
2022-11-17T17:28:56.116Z,12.80
2022-11-17T17:31:24.117Z,12.80
2022-11-17T17:33:52.234Z,12.80
2022-11-17T17:36:22.079Z,12.80
2022-11-17T17:38:55.115Z,12.80
2022-11-17T17:41:25.251Z,12.80
2022-11-17T17:44:00.727Z,12.80
2022-11-17T17:46:31.875Z,12.80
2022-11-17T17:48:59.208Z,12.70
2022-11-17T17:51:27.979Z,12.70
2022-11-17T17:53:57.947Z,12.70
2022-11-17T17:56:25.537Z,12.70
2022-11-17T17:58:55.346Z,12.70
2022-11-17T18:01:27.996Z,12.80
2022-11-17T18:04:08.086Z,12.80
2022-11-17T18:06:39.208Z,12.80
2022-11-17T18:09:07.898Z,12.80
2022-11-17T18:11:35.734Z,12.80
2022-11-17T18:14:03.488Z,12.80
2022-11-17T18:16:32.875Z,12.80
2022-11-17T18:19:02.976Z,12.80
2022-11-17T18:21:31.166Z,12.80
2022-11-17T18:24:01.297Z,12.80
2022-11-17T18:26:33.401Z,12.80
2022-11-17T18:29:05.931Z,12.80
2022-11-17T18:31:35.579Z,12.80
2022-11-17T18:34:06.269Z,12.80
2022-11-17T18:36:34.733Z,12.90
2022-11-17T18:39:01.785Z,12.90
2022-11-17T18:41:30.855Z,12.90
2022-11-17T18:43:58.603Z,12.90
2022-11-17T18:46:27.322Z,13.00
2022-11-17T18:48:55.911Z,13.00
2022-11-17T18:51:25.356Z,13.00
2022-11-17T18:53:54.149Z,13.00
2022-11-17T18:56:23.660Z,12.90
2022-11-17T18:58:51.232Z,12.70
2022-11-17T19:01:20.660Z,12.60
2022-11-17T19:03:53.228Z,12.50
2022-11-17T19:06:22.053Z,12.40
2022-11-17T19:08:50.038Z,12.30
2022-11-17T19:11:18.690Z,12.30
2022-11-17T19:13:46.203Z,12.30
2022-11-17T19:16:17.922Z,12.20
2022-11-17T19:18:46.919Z,12.20
2022-11-17T19:21:21.990Z,12.30
2022-11-17T19:23:51.929Z,12.20
2022-11-17T19:26:25.353Z,12.20
2022-11-17T19:29:00.484Z,12.20
2022-11-17T19:31:28.279Z,12.30
2022-11-17T19:33:56.182Z,12.30
2022-11-17T19:36:25.531Z,12.30
2022-11-17T19:38:54.389Z,12.20
2022-11-17T19:41:29.271Z,12.20
2022-11-17T19:43:57.802Z,12.20
2022-11-17T19:46:26.365Z,12.10
2022-11-17T19:48:54.701Z,12.10
2022-11-17T19:51:30.635Z,12.10
2022-11-17T19:54:01.223Z,12.10
2022-11-17T19:56:28.757Z,12.10
2022-11-17T19:58:56.237Z,12.00
2022-11-17T20:01:26.154Z,12.00
2022-11-17T20:03:53.378Z,12.00
2022-11-17T20:06:22.869Z,12.00
2022-11-17T20:08:50.083Z,12.00
2022-11-17T20:11:18.790Z,11.90
2022-11-17T20:13:45.835Z,12.00
2022-11-17T20:16:18.995Z,11.90
2022-11-17T20:18:49.870Z,12.00
2022-11-17T20:21:18.238Z,12.00
2022-11-17T20:23:45.655Z,12.00
2022-11-17T20:26:18.356Z,12.00
2022-11-17T20:28:45.542Z,12.10
2022-11-17T20:31:13.908Z,12.10
2022-11-17T20:33:42.479Z,12.10
2022-11-17T20:36:13.038Z,12.10
2022-11-17T20:38:40.287Z,12.10
2022-11-17T20:41:07.915Z,12.20
2022-11-17T20:43:35.469Z,12.20
2022-11-17T20:46:03.220Z,12.20
2022-11-17T20:48:31.590Z,12.20
2022-11-17T20:51:04.285Z,12.10
2022-11-17T20:53:31.846Z,12.20
2022-11-17T20:56:00.120Z,12.20
2022-11-17T20:58:28.251Z,12.20
2022-11-17T21:00:56.095Z,12.20
2022-11-17T21:03:23.648Z,12.20
2022-11-17T21:05:59.377Z,12.20
2022-11-17T21:08:29.357Z,12.20
2022-11-17T21:11:05.306Z,12.20
2022-11-17T21:13:34.392Z,12.20
2022-11-17T21:16:12.088Z,12.20
2022-11-17T21:18:47.891Z,12.30
2022-11-17T21:21:15.733Z,12.30
2022-11-17T21:23:46.625Z,12.30
2022-11-17T21:26:19.615Z,12.20
2022-11-17T21:28:47.420Z,12.20
2022-11-17T21:31:25.490Z,12.20
2022-11-17T21:34:03.062Z,12.20
2022-11-17T21:36:31.233Z,12.10
2022-11-17T21:38:59.066Z,12.10
2022-11-17T21:41:27.317Z,12.10
2022-11-17T21:43:57.751Z,12.10
2022-11-17T21:46:27.227Z,12.10
2022-11-17T21:48:55.730Z,12.10
2022-11-17T21:51:28.233Z,12.10
2022-11-17T21:53:57.507Z,12.20
2022-11-17T21:56:26.813Z,12.20
2022-11-17T21:59:02.306Z,12.20
2022-11-17T22:01:30.099Z,12.20
2022-11-17T22:03:57.120Z,12.20
2022-11-17T22:06:25.681Z,12.20
2022-11-17T22:08:54.575Z,12.20
2022-11-17T22:11:37.474Z,12.30
2022-11-17T22:14:08.078Z,12.30
2022-11-17T22:16:40.317Z,12.30
2022-11-17T22:19:08.088Z,12.30
2022-11-17T22:21:36.582Z,12.30
2022-11-17T22:24:04.626Z,12.30
2022-11-17T22:26:32.221Z,12.30
2022-11-17T22:28:59.680Z,12.30
2022-11-17T22:31:27.402Z,12.30
2022-11-17T22:33:55.136Z,12.30
2022-11-17T22:36:22.256Z,12.30
2022-11-17T22:38:51.211Z,12.30
2022-11-17T22:41:20.683Z,12.30
2022-11-17T22:43:55.480Z,12.30
2022-11-17T22:46:24.480Z,12.30
2022-11-17T22:48:52.323Z,12.30
2022-11-17T22:51:38.987Z,12.40
2022-11-17T22:54:06.826Z,12.40
2022-11-17T22:56:34.339Z,12.40
2022-11-17T22:59:01.926Z,12.30
2022-11-17T23:01:28.996Z,12.30
2022-11-17T23:03:56.012Z,12.20
2022-11-17T23:06:24.203Z,12.30
2022-11-17T23:08:51.303Z,12.30
2022-11-17T23:14:08.152Z,12.30
2022-11-17T23:16:36.031Z,12.30
2022-11-17T23:19:03.123Z,12.30
2022-11-17T23:21:30.153Z,12.40
2022-11-17T23:23:57.303Z,12.30
2022-11-17T23:26:24.311Z,12.30
2022-11-17T23:28:51.255Z,12.40
2022-11-17T23:31:18.378Z,12.40
2022-11-17T23:33:47.041Z,12.30
2022-11-17T23:36:16.288Z,12.40
2022-11-17T23:38:44.320Z,12.40
2022-11-17T23:41:14.098Z,12.40
2022-11-17T23:43:41.811Z,12.30
2022-11-17T23:46:13.141Z,12.30
2022-11-17T23:48:40.757Z,12.30
2022-11-17T23:51:11.061Z,12.30
2022-11-17T23:53:38.547Z,12.30
2022-11-17T23:56:06.424Z,12.30
2022-11-17T23:58:33.501Z,12.30
